Latest Weather Observations for Broken Hill Airport

IDN60801

Issued at 10:32 pm EDT Thursday 8 December 2016 (issued every 30 minutes, with the page automatically refreshed every 10 minutes)

About weather observations | Map of weather stations | Latest weather observations for NSW | Other Formats
Station Details ID: 047048 Name: BROKEN HILL AIRPORT AWS Lat: -32.00 Lon: 141.47 Height: 281.3 m
Data from the previous 72 hours. | See also: Recent months at Broken Hill Airport
Date/Time
EDT
Temp
°C
App
Temp
°C
Dew
Point
°C
Rel
Hum
%
Delta-T
°C
Wind Press
QNH
hPa
Press
MSL
hPa
Rain since
9am
mm
Dir  Spd
km/h
Gust
km/h
Spd
kts
Gust
kts
08/10:30pm 17.6 10.9 3.5 39 6.7 SSW 28 41 15 22 1014.1 1012.7 0.2
08/10:00pm 18.2 10.5 3.3 37 7.0 SW 33 44 18 24 1013.4 1012.0 0.2
08/09:37pm 18.9 11.8 3.5 36 7.3 SW 30 48 16 26 1012.7 1011.3 0.2
08/09:30pm 18.9 11.6 2.7 34 7.6 SW 30 37 16 20 1012.6 1011.2 0.2
08/09:00pm 19.8 11.1 1.7 30 8.4 SW 37 48 20 26 1011.9 1010.4 0.2
08/08:30pm 20.5 11.2 0.4 26 9.1 SW 39 50 21 27 1011.2 1009.8 0.2
08/08:00pm 21.3 11.4 1.6 27 9.2 SW 43 56 23 30 1010.5 1009.1 0.2
08/07:30pm 22.4 12.4 0.9 24 10.0 SW 43 57 23 31 1010.0 1008.6 0.2
08/07:15pm 22.8 12.7 0.6 23 10.3 SW 43 61 23 33 1009.5 1008.1 0.2
08/07:00pm 23.6 13.6 1.3 23 10.6 SW 43 54 23 29 1009.4 1008.0 0.2
08/06:30pm 24.3 14.6 0.6 21 11.1 WSW 41 57 22 31 1008.7 1007.2 0.2
08/06:00pm 24.4 14.5 1.9 23 10.9 SW 43 65 23 35 1008.2 1006.7 0.2
08/05:30pm 24.6 13.8 2.1 23 10.9 SW 48 67 26 36 1008.1 1006.6 0.2
08/05:13pm 24.8 14.4 2.3 23 10.9 SW 46 65 25 35 1007.7 1006.3 0.2
08/05:00pm 24.9 14.3 3.0 24 10.8 SW 48 65 26 35 1007.6 1006.2 0.2
08/04:33pm 25.1 14.7 1.9 22 11.2 SW 46 65 25 35 1007.5 1006.1 0.2
08/04:30pm 25.5 14.4 2.2 22 11.4 SW 50 65 27 35 1007.5 1006.1 0.2
08/04:00pm 25.2 14.8 2.0 22 11.3 SW 46 63 25 34 1007.3 1005.9 0.2
08/03:34pm 25.8 15.4 1.8 21 11.6 SW 46 65 25 35 1007.2 1005.8 0.2
08/03:30pm 25.3 15.0 2.7 23 11.1 SW 46 63 25 34 1007.1 1005.7 0.2
08/03:00pm 25.0 14.4 3.0 24 10.9 SW 48 61 26 33 1006.9 1005.5 0.2
08/02:30pm 24.5 15.0 3.8 26 10.3 SW 43 59 23 32 1006.9 1005.5 0.2
08/02:03pm 24.0 14.9 3.9 27 10.0 WSW 41 59 22 32 1006.9 1005.5 0.0
08/02:00pm 23.9 14.9 4.3 28 9.9 SW 41 56 22 30 1007.0 1005.6 0.0
08/01:30pm 21.1 13.3 8.4 44 6.7 SW 39 50 21 27 1007.4 1006.0 0.0
08/01:00pm 18.2 11.3 9.0 55 4.9 SW 35 46 19 25 1008.2 1006.7 0.0
08/12:30pm 16.7 9.6 9.6 63 3.8 SW 37 48 20 26 1008.5 1007.0 0.0
08/12:00pm 16.5 9.4 11.0 70 3.0 SW 39 52 21 28 1008.3 1006.8 0.0
08/11:46am 16.1 8.3 11.1 72 2.7 SW 43 56 23 30 1008.2 1006.7 0.0
08/11:30am 15.7 8.1 11.7 77 2.2 SW 43 57 23 31 1007.9 1006.5 0.0
08/11:02am 17.5 11.3 14.8 84 1.6 SW 41 54 22 29 1007.4 1006.0 0.0
08/11:00am 17.7 11.6 15.1 85 1.5 SW 41 50 22 27 1007.3 1005.9 0.0
08/10:45am 19.1 13.9 13.5 70 3.2 W 33 59 18 32 1006.8 1005.4 0.0
08/10:42am 22.7 19.9 17.4 72 3.3 WNW 28 46 15 25 1006.3 1004.9 0.0
08/10:30am 22.8 20.5 17.7 73 3.2 WNW 26 35 14 19 1005.9 1004.4 0.0
08/10:00am 25.1 21.7 15.7 56 5.8 NW 28 39 15 21 1005.5 1004.0 0.0
08/09:30am 24.1 20.9 15.3 58 5.4 NW 26 41 14 22 1005.6 1004.1 0.0
08/09:00am 23.6 21.6 14.9 58 5.3 NW 19 26 10 14 1005.5 1004.0 0.0
08/08:30am 23.5 21.3 14.8 58 5.2 NW 20 30 11 16 1005.7 1004.2 0.0
08/08:00am 23.7 20.7 14.7 57 5.4 NNW 24 35 13 19 1005.5 1004.0 0.0
08/07:30am 22.9 20.0 15.2 62 4.6 NW 24 37 13 20 1005.9 1004.4 0.0
08/07:00am 24.8 20.9 13.4 49 6.8 NNW 26 39 14 21 1005.3 1003.8 0.0
08/06:30am 24.6 21.0 13.2 49 6.7 NNW 24 33 13 18 1004.8 1003.3 0.0
08/06:00am 23.9 22.1 13.2 51 6.3 NNW 15 24 8 13 1005.1 1003.6 0.0
08/05:30am 23.8 21.5 13.1 51 6.3 N 17 26 9 14 1004.4 1002.9 0.0
08/05:00am 23.7 21.3 12.7 50 6.4 N 17 22 9 12 1004.5 1003.0 0.0
08/04:30am 24.1 21.1 12.1 47 6.9 N 19 32 10 17 1004.6 1003.1 0.0
08/04:00am 24.5 21.0 12.1 46 7.2 N 22 35 12 19 1005.0 1003.5 0.0
08/03:30am 24.5 21.4 12.1 46 7.2 N 20 32 11 17 1005.5 1004.0 0.0
08/03:00am 24.7 20.8 12.0 45 7.4 N 24 35 13 19 1005.8 1004.3 0.0
08/02:30am 24.7 20.6 11.6 44 7.5 N 24 41 13 22 1005.5 1004.0 0.0
08/02:00am 24.8 21.5 11.7 44 7.5 N 20 33 11 18 1005.5 1004.0 0.0
08/01:30am 24.2 22.0 12.2 47 6.9 N 15 22 8 12 1006.3 1004.9 0.0
08/01:00am 24.4 21.5 12.4 47 7.0 NNE 19 24 10 13 1007.0 1005.6 0.0
08/12:30am 24.7 22.2 12.3 46 7.2 NNE 17 24 9 13 1007.7 1006.3 0.0
08/12:00am 25.6 23.1 12.4 43 7.7 NNE 17 24 9 13 1008.2 1006.7 0.0
 
Date/Time
EDT
Temp
°C
App
Temp
°C
Dew
Point
°C
Rel
Hum
%
Delta-T
°C
Wind Press
QNH
hPa
Press
MSL
hPa
Rain since
9am
mm
Dir  Spd
km/h
Gust
km/h
Spd
kts
Gust
kts
07/11:30pm 26.3 23.7 12.0 41 8.3 N 17 24 9 13 1008.8 1007.3 0.0
07/11:00pm 26.4 24.2 12.1 41 8.3 N 15 20 8 11 1009.1 1007.6 0.0
07/10:30pm 26.1 24.3 12.2 42 8.1 NNE 13 15 7 8 1009.2 1007.8 0.0
07/10:00pm 26.5 25.0 11.8 40 8.5 N 11 15 6 8 1009.4 1008.0 0.0
07/09:30pm 26.7 24.9 10.8 37 9.1 N 11 15 6 8 1009.3 1007.9 0.0
07/09:00pm 27.5 24.6 9.8 33 10.0 NNE 15 19 8 10 1009.4 1008.0 0.0
07/08:30pm 28.1 25.0 8.9 30 10.7 NNE 15 24 8 13 1009.4 1008.0 0.0
07/08:00pm 28.9 25.4 8.6 28 11.3 NNE 17 28 9 15 1009.5 1008.1 0.0
07/07:30pm 29.4 25.6 9.0 28 11.5 NNE 19 30 10 16 1009.7 1008.3 0.0
07/07:00pm 29.8 25.9 9.3 28 11.6 NNE 20 32 11 17 1009.9 1008.5 0.0
07/06:30pm 29.7 26.3 7.6 25 12.2 N 15 26 8 14 1010.1 1008.7 0.0
07/06:00pm 30.0 26.1 7.2 24 12.5 N 17 26 9 14 1010.4 1009.0 0.0
07/05:30pm 30.7 27.6 9.0 26 12.3 N 15 22 8 12 1010.6 1009.2 0.0
07/05:00pm 29.9 26.4 7.2 24 12.4 NNE 15 24 8 13 1011.1 1009.7 0.0
07/04:30pm 30.5 26.9 8.3 25 12.4 NE 17 28 9 15 1011.4 1010.0 0.0
07/04:00pm 29.3 25.6 7.8 26 11.8 N 17 26 9 14 1012.0 1010.5 0.0
07/03:30pm 29.7 26.3 7.6 25 12.1 N 15 28 8 15 1012.5 1011.1 0.0
07/03:00pm 29.8 26.0 7.7 25 12.2 N 17 28 9 15 1013.1 1011.7 0.0
07/02:30pm 29.8 26.8 7.7 25 12.2 NNE 13 28 7 15 1013.6 1012.2 0.0
07/02:00pm 29.4 26.3 7.3 25 12.1 NNE 13 28 7 15 1014.0 1012.6 0.0
07/01:30pm 27.9 24.5 7.7 28 11.0 NE 15 26 8 14 1014.4 1013.0 0.0
07/01:00pm 28.2 25.7 8.0 28 11.1 NNE 11 22 6 12 1014.9 1013.5 0.0
07/12:30pm 27.0 24.0 7.5 29 10.5 NNE 13 20 7 11 1015.2 1013.8 0.0
07/12:00pm 26.3 22.6 7.8 31 10.0 NE 17 26 9 14 1015.6 1014.2 0.0
07/11:30am 25.9 21.4 6.0 28 10.4 NNE 19 26 10 14 1015.9 1014.5 0.0
07/11:00am 25.2 19.9 6.9 31 9.7 NNE 24 33 13 18 1016.1 1014.7 0.0
07/10:30am 24.2 20.0 8.2 36 8.6 NE 20 28 11 15 1016.4 1015.0 0.0
07/10:00am 23.5 19.1 8.8 39 8.0 NE 22 30 12 16 1016.5 1015.1 0.0
07/09:30am 22.5 18.3 9.6 44 7.1 NE 22 28 12 15 1016.5 1015.1 0.2
07/09:00am 21.4 17.5 8.7 44 6.8 NE 19 22 10 12 1016.5 1015.1 0.2
07/08:30am 20.3 17.1 10.1 52 5.6 NE 17 24 9 13 1016.6 1015.2 0.2
07/08:00am 19.0 20.1 13.6 71 3.1 CALM 0 0 0 0 1016.4 1015.0 0.2
07/07:30am 17.4 18.7 14.1 81 1.9 CALM 0 0 0 0 1016.0 1014.6 0.2
07/07:00am 15.3 16.1 12.6 84 1.5 CALM 0 0 0 0 1015.5 1014.1 0.2
07/06:30am 13.2 13.5 10.9 86 1.2 CALM 0 0 0 0 1015.0 1013.6 0.2
07/06:00am 13.7 14.1 11.4 86 1.2 CALM 0 0 0 0 1014.8 1013.4 0.2
07/05:30am 12.9 13.3 11.3 90 0.9 CALM 0 0 0 0 1014.5 1013.1 0.2
07/05:00am 13.2 13.8 11.8 91 0.8 CALM 0 0 0 0 1014.3 1012.9 0.2
07/04:30am 13.5 14.0 11.7 89 1.0 CALM 0 0 0 0 1014.3 1012.9 0.2
07/04:00am 14.1 14.7 12.0 87 1.1 CALM 0 0 0 0 1014.2 1012.8 0.2
07/03:30am 13.5 13.9 11.2 86 1.2 CALM 0 0 0 0 1013.9 1012.5 0.2
07/03:00am 13.6 14.1 11.7 88 1.0 CALM 0 0 0 0 1014.5 1013.1 0.2
07/02:30am 13.1 13.4 10.8 86 1.2 CALM 0 4 0 2 1014.8 1013.4 0.2
07/02:00am 15.1 14.8 12.8 86 1.3 NNW 6 9 3 5 1015.2 1013.8 0.2
07/01:30am 13.6 13.9 10.8 83 1.5 CALM 0 0 0 0 1015.5 1014.1 0.2
07/01:00am 14.8 15.7 13.0 89 1.0 CALM 0 0 0 0 1015.8 1014.4 0.2
07/12:30am 14.3 15.0 12.2 87 1.2 CALM 0 0 0 0 1016.0 1014.6 0.2
07/12:00am 15.5 15.6 12.8 84 1.5 NNW 4 7 2 4 1016.3 1014.9 0.2
 
Date/Time
EDT
Temp
°C
App
Temp
°C
Dew
Point
°C
Rel
Hum
%
Delta-T
°C
Wind Press
QNH
hPa
Press
MSL
hPa
Rain since
9am
mm
Dir  Spd
km/h
Gust
km/h
Spd
kts
Gust
kts
06/11:30pm 15.2 16.2 13.1 87 1.2 CALM 0 0 0 0 1016.2 1014.8 0.2
06/11:00pm 15.2 16.1 12.9 86 1.3 CALM 0 2 0 1 1016.4 1015.0 0.2
06/10:30pm 14.9 14.4 12.6 86 1.3 SW 7 9 4 5 1016.4 1015.0 0.2
06/10:00pm 16.0 15.8 13.1 83 1.6 WNW 6 7 3 4 1016.4 1015.0 0.2
06/09:30pm 17.5 18.5 13.2 76 2.4 CALM 0 0 0 0 1016.2 1014.8 0.2
06/09:00pm 18.4 19.1 13.3 72 2.9 SSE 2 7 1 4 1016.1 1014.7 0.2
06/08:30pm 18.9 19.0 12.6 67 3.6 SSE 4 6 2 3 1016.3 1014.9 0.2
06/08:00pm 20.1 19.2 12.6 62 4.3 S 9 11 5 6 1016.1 1014.7 0.2
06/07:30pm 20.8 20.1 13.3 62 4.3 S 9 11 5 6 1015.9 1014.5 0.2
06/07:00pm 19.8 18.9 13.7 68 3.5 SSW 11 13 6 7 1015.7 1014.3 0.2
06/06:30pm 20.1 18.6 14.2 69 3.5 SSW 15 17 8 9 1015.5 1014.1 0.2
06/06:00pm 20.2 19.4 14.1 68 3.6 SSW 11 13 6 7 1014.9 1013.5 0.2
06/05:30pm 20.1 21.1 14.2 69 3.5 SSE 2 7 1 4 1014.8 1013.4 0.0
06/05:00pm 20.2 21.1 13.9 67 3.7 SW 2 7 1 4 1014.6 1013.2 0.0
06/04:30pm 20.1 21.2 14.7 71 3.2 SSE 2 7 1 4 1014.9 1013.5 0.0
06/04:00pm 19.6 19.8 14.8 74 2.8 SSW 7 11 4 6 1015.5 1014.1 0.0
06/03:30pm 19.5 18.7 15.0 75 2.7 SSW 13 15 7 8 1016.0 1014.6 0.0
06/03:00pm 19.1 18.2 14.8 76 2.5 SSW 13 17 7 9 1015.9 1014.5 0.0
06/02:30pm 19.3 19.4 15.4 78 2.3 S 9 15 5 8 1015.9 1014.5 0.0
06/02:00pm 19.0 19.0 15.1 78 2.3 SSW 9 13 5 7 1016.4 1015.0 0.0
06/01:30pm 18.6 18.3 14.3 76 2.5 SSE 9 13 5 7 1015.6 1014.2 0.0
06/01:00pm 18.5 18.1 14.0 75 2.6 SSW 9 17 5 9 1016.3 1014.9 0.0
06/12:30pm 18.6 17.0 15.1 80 2.1 SSW 17 20 9 11 1016.5 1015.1 0.0
06/12:00pm 19.0 16.8 13.2 69 3.3 S 17 22 9 12 1015.6 1014.2 0.0
06/11:30am 18.8 19.0 15.7 82 1.9 SSW 9 13 5 7 1015.7 1014.3 0.0
06/11:00am 18.3 18.6 15.0 81 1.9 SSW 7 11 4 6 1016.0 1014.6 0.0
06/10:30am 18.0 18.3 15.1 83 1.7 SW 7 11 4 6 1016.0 1014.6 0.0
06/10:00am 18.0 19.8 15.4 85 1.5 CALM 0 0 0 0 1016.3 1014.9 0.0
06/09:30am 17.2 18.6 14.5 84 1.6 CALM 0 6 0 3 1016.3 1014.9 3.6
06/09:00am 17.1 17.1 15.1 88 1.2 SSW 9 9 5 5 1015.7 1014.3 3.6
06/08:30am 16.8 16.6 14.6 87 1.3 SW 9 13 5 7 1016.0 1014.6 3.4
06/08:00am 16.9 17.2 15.1 89 1.1 SSW 7 9 4 5 1015.2 1013.8 3.4
06/07:30am 16.8 16.6 14.8 88 1.2 SSW 9 11 5 6 1014.7 1013.3 2.8
06/07:00am 17.4 16.8 15.7 90 1.0 SSW 13 17 7 9 1014.6 1013.2 2.6
06/06:30am 17.2 18.8 15.0 87 1.3 CALM 0 0 0 0 1014.5 1013.1 2.6
06/06:00am 17.0 17.1 14.5 85 1.5 WSW 7 11 4 6 1014.3 1012.9 2.2
06/05:30am 17.1 16.7 14.0 82 1.8 N 9 13 5 7 1013.9 1012.5 1.4
06/05:00am 17.6 18.1 15.0 85 1.5 WNW 6 11 3 6 1013.4 1012.0 1.2
06/04:30am 17.8 18.9 14.7 82 1.8 NW 2 9 1 5 1013.0 1011.6 1.0
06/04:00am 17.9 19.6 15.2 84 1.6 CALM 0 0 0 0 1012.8 1011.4 0.6
06/03:30am 18.0 19.7 15.1 83 1.7 CALM 0 0 0 0 1012.6 1011.2 0.4
06/03:00am 18.1 19.6 14.6 80 2.1 CALM 0 0 0 0 1012.3 1010.8 0.0
06/02:30am 18.1 18.4 14.4 79 2.2 ESE 6 7 3 4 1012.7 1011.3 0.0
06/02:00am 18.1 18.0 14.0 77 2.4 ESE 7 9 4 5 1012.8 1011.4 0.0
06/01:30am 18.4 17.4 13.5 73 2.8 S 11 13 6 7 1013.0 1011.6 0.0
06/01:00am 18.5 16.5 13.8 74 2.7 S 17 20 9 11 1012.5 1011.1 0.0
06/12:30am 18.8 20.5 15.1 79 2.2 CALM 0 7 0 4 1012.7 1011.3 0.0
06/12:00am 18.7 19.1 15.2 80 2.1 E 7 9 4 5 1012.9 1011.5 0.0
 
Date/Time
EDT
Temp
°C
App
Temp
°C
Dew
Point
°C
Rel
Hum
%
Delta-T
°C
Wind Press
QNH
hPa
Press
MSL
hPa
Rain since
9am
mm
Dir  Spd
km/h
Gust
km/h
Spd
kts
Gust
kts
05/11:30pm 18.6 18.7 15.5 82 1.8 E 9 11 5 6 1013.0 1011.6 0.0

Other Formats:

Comma delimited format used in spreadsheet applications
http://www.bom.gov.au/fwo/IDN60801/IDN60801.94691.axf

JavaScript Object Notation format (JSON) in row-major order
http://www.bom.gov.au/fwo/IDN60801/IDN60801.94691.json